createdAt,value
2023-02-06T00:00:33.299Z,34.47
2023-02-06T00:02:38.435Z,34.25
2023-02-06T00:04:43.753Z,36.42
2023-02-06T00:06:49.040Z,35.78
2023-02-06T00:08:54.841Z,37.22
2023-02-06T00:11:00.121Z,34.60
2023-02-06T00:13:07.634Z,35.78
2023-02-06T00:17:18.332Z,32.60
2023-02-06T00:19:23.996Z,31.42
2023-02-06T00:21:30.795Z,35.65
2023-02-06T00:23:36.078Z,32.90
2023-02-06T00:25:41.464Z,36.78
2023-02-06T00:27:46.417Z,36.55
2023-02-06T00:29:53.971Z,35.90
2023-02-06T00:31:58.909Z,30.63
2023-02-06T00:34:04.630Z,32.78
2023-02-06T00:36:11.333Z,30.55
2023-02-06T00:38:16.662Z,30.00
2023-02-06T00:40:23.006Z,30.40
2023-02-06T00:42:28.329Z,30.40
2023-02-06T00:44:34.107Z,32.28
2023-02-06T00:46:41.723Z,30.65
2023-02-06T00:48:47.123Z,30.85
2023-02-06T00:50:52.332Z,27.60
2023-02-06T00:52:57.845Z,30.05
2023-02-06T00:55:02.789Z,30.08
2023-02-06T00:57:07.731Z,28.40
2023-02-06T00:59:13.432Z,30.35
2023-02-06T01:01:18.491Z,36.13
2023-02-06T01:03:26.483Z,35.10
2023-02-06T01:05:32.440Z,30.60
2023-02-06T01:07:39.886Z,34.55
2023-02-06T01:09:45.253Z,31.55
2023-02-06T01:11:50.906Z,30.92
2023-02-06T01:13:57.162Z,35.63
2023-02-06T01:16:02.114Z,28.90
2023-02-06T01:18:08.557Z,32.47
2023-02-06T01:20:17.163Z,26.80
2023-02-06T01:22:22.874Z,30.50
2023-02-06T01:24:27.814Z,35.38
2023-02-06T01:26:33.372Z,32.05
2023-02-06T01:28:39.604Z,34.25
2023-02-06T01:30:44.871Z,30.83
2023-02-06T01:32:50.064Z,34.13
2023-02-06T01:34:55.412Z,36.58
2023-02-06T01:37:02.984Z,33.53
2023-02-06T01:39:08.820Z,28.05
2023-02-06T01:41:15.875Z,28.42
2023-02-06T01:43:21.661Z,31.13
2023-02-06T01:45:47.167Z,36.65
2023-02-06T01:47:52.816Z,32.55
2023-02-06T01:49:58.063Z,30.38
2023-02-06T01:52:14.258Z,27.45
2023-02-06T01:54:20.464Z,28.23
2023-02-06T01:56:27.187Z,37.63
2023-02-06T01:58:37.394Z,30.77
2023-02-06T02:00:42.882Z,31.15
2023-02-06T02:02:52.335Z,31.02
2023-02-06T02:04:58.421Z,32.13
2023-02-06T02:07:15.004Z,29.85
2023-02-06T02:09:21.382Z,29.90
2023-02-06T02:11:32.428Z,29.65
2023-02-06T02:13:38.442Z,32.67
2023-02-06T02:15:59.607Z,34.28
2023-02-06T02:18:12.778Z,31.23
2023-02-06T02:20:45.283Z,33.85
2023-02-06T02:23:16.836Z,32.25
2023-02-06T02:26:25.368Z,31.83
2023-02-06T02:29:24.174Z,29.92
2023-02-06T02:32:04.677Z,27.35
2023-02-06T02:34:55.056Z,28.92
2023-02-06T02:37:06.127Z,34.65
2023-02-06T02:39:25.280Z,27.48
2023-02-06T02:41:36.924Z,30.27
2023-02-06T02:43:46.877Z,36.13
2023-02-06T02:45:58.572Z,29.27
2023-02-06T02:48:09.987Z,28.27
2023-02-06T02:50:21.242Z,27.95
2023-02-06T02:52:26.227Z,26.35
2023-02-06T02:54:31.293Z,32.88
2023-02-06T02:56:36.702Z,29.95
2023-02-06T02:58:42.691Z,32.60
2023-02-06T03:00:52.375Z,32.45
2023-02-06T03:03:00.184Z,34.70
2023-02-06T03:05:10.912Z,35.30
2023-02-06T03:07:33.982Z,28.25
2023-02-06T03:09:53.624Z,30.98
2023-02-06T03:12:06.970Z,32.88
2023-02-06T03:14:21.978Z,26.67
2023-02-06T03:16:31.653Z,27.92
2023-02-06T03:18:44.498Z,34.70
2023-02-06T03:20:51.443Z,29.35
2023-02-06T03:23:01.992Z,33.05
2023-02-06T03:25:13.124Z,31.08
2023-02-06T03:27:21.464Z,26.02
2023-02-06T03:31:40.944Z,30.17
2023-02-06T03:33:51.644Z,31.25
2023-02-06T03:35:59.828Z,35.83
2023-02-06T03:38:10.107Z,33.38
2023-02-06T03:40:16.291Z,35.13
2023-02-06T03:42:25.741Z,29.38
2023-02-06T03:44:36.998Z,30.90
2023-02-06T03:46:45.321Z,31.77
2023-02-06T03:48:54.998Z,30.70
2023-02-06T03:51:06.127Z,32.47
2023-02-06T03:53:16.468Z,35.33
2023-02-06T03:55:25.612Z,33.70
2023-02-06T03:57:33.402Z,35.80
2023-02-06T03:59:38.329Z,35.22
2023-02-06T04:01:45.524Z,30.60
2023-02-06T04:03:50.824Z,32.97
2023-02-06T04:05:55.971Z,37.58
2023-02-06T04:08:01.991Z,36.00
2023-02-06T04:10:10.259Z,37.35
2023-02-06T04:12:15.463Z,34.78
2023-02-06T04:14:21.156Z,36.72
2023-02-06T04:16:26.137Z,45.25
2023-02-06T04:18:31.919Z,36.00
2023-02-06T04:20:40.907Z,38.85
2023-02-06T04:22:46.323Z,34.58
2023-02-06T04:24:51.866Z,36.65
2023-02-06T04:26:59.402Z,41.13
2023-02-06T04:29:05.104Z,39.50
2023-02-06T04:31:10.138Z,42.05
2023-02-06T04:33:15.421Z,38.95
2023-02-06T04:35:21.281Z,39.38
2023-02-06T04:37:26.262Z,40.75
2023-02-06T04:39:32.421Z,39.67
2023-02-06T04:41:37.816Z,40.22
2023-02-06T04:43:45.740Z,38.25
2023-02-06T04:45:50.666Z,40.28
2023-02-06T04:47:57.491Z,34.75
2023-02-06T04:50:03.675Z,36.10
2023-02-06T04:52:08.619Z,45.88
2023-02-06T04:54:17.361Z,36.05
2023-02-06T04:56:23.124Z,41.72
2023-02-06T04:58:28.057Z,34.13
2023-02-06T05:00:36.950Z,36.13
2023-02-06T05:02:44.361Z,37.45
2023-02-06T05:04:49.315Z,38.65
2023-02-06T05:06:54.647Z,39.97
2023-02-06T05:09:00.353Z,43.08
2023-02-06T05:11:05.355Z,48.38
2023-02-06T05:13:11.755Z,40.55
2023-02-06T05:15:16.960Z,37.78
2023-02-06T05:17:24.736Z,38.08
2023-02-06T05:19:30.409Z,41.10
2023-02-06T05:21:35.386Z,47.08
2023-02-06T05:23:40.896Z,46.22
2023-02-06T05:25:46.115Z,44.60
2023-02-06T05:27:51.435Z,45.42
2023-02-06T05:29:56.458Z,40.83
2023-02-06T05:32:02.041Z,41.92
2023-02-06T05:34:09.656Z,43.13
2023-02-06T05:36:15.446Z,41.83
2023-02-06T05:38:20.974Z,47.28
2023-02-06T05:40:26.346Z,39.78
2023-02-06T05:42:31.736Z,43.55
2023-02-06T05:44:36.662Z,51.88
2023-02-06T05:46:42.092Z,40.00
2023-02-06T05:48:47.308Z,46.42
2023-02-06T05:50:55.353Z,40.72
2023-02-06T05:55:05.375Z,37.55
2023-02-06T05:57:10.351Z,45.22
2023-02-06T05:59:15.753Z,43.42
2023-02-06T06:01:21.007Z,38.45
2023-02-06T06:03:26.008Z,46.63
2023-02-06T06:05:31.443Z,38.15
2023-02-06T06:07:39.030Z,50.10
2023-02-06T06:11:51.579Z,44.45
2023-02-06T06:13:56.504Z,41.35
2023-02-06T06:16:01.892Z,41.05
2023-02-06T06:18:07.418Z,45.47
2023-02-06T06:20:13.907Z,42.47
2023-02-06T06:22:18.891Z,47.65
2023-02-06T06:24:27.309Z,47.15
2023-02-06T06:26:32.335Z,41.38
2023-02-06T06:28:39.609Z,50.60
2023-02-06T06:30:44.752Z,44.15
2023-02-06T06:32:50.093Z,47.72
2023-02-06T06:34:55.057Z,44.65
2023-02-06T06:37:00.431Z,42.85
2023-02-06T06:39:05.959Z,42.40
2023-02-06T06:41:13.883Z,43.78
2023-02-06T06:45:23.979Z,45.53
2023-02-06T06:47:29.808Z,92.22
2023-02-06T06:49:35.584Z,43.13
2023-02-06T06:51:40.960Z,50.10
2023-02-06T06:53:45.920Z,41.92
2023-02-06T06:55:51.308Z,43.10
2023-02-06T06:57:58.871Z,46.50
2023-02-06T07:00:04.546Z,47.70
2023-02-06T07:02:09.920Z,39.47
2023-02-06T07:04:17.340Z,43.80
2023-02-06T07:06:22.978Z,42.05
2023-02-06T07:08:29.950Z,43.85
2023-02-06T07:10:35.505Z,42.70
2023-02-06T07:12:42.152Z,42.15
2023-02-06T07:14:49.940Z,40.35
2023-02-06T07:19:02.363Z,36.90
2023-02-06T07:21:09.155Z,35.20
2023-02-06T07:23:14.094Z,35.67
2023-02-06T07:25:20.425Z,34.35
2023-02-06T07:27:26.356Z,32.78
2023-02-06T07:29:31.281Z,31.13
2023-02-06T07:31:39.255Z,31.10
2023-02-06T07:33:45.263Z,31.67
2023-02-06T07:35:50.485Z,28.25
2023-02-06T07:37:56.642Z,25.58
2023-02-06T07:40:02.015Z,25.42
2023-02-06T07:42:09.177Z,27.88
2023-02-06T07:44:34.434Z,21.08
2023-02-06T07:46:42.298Z,22.92
2023-02-06T07:48:47.579Z,24.65
2023-02-06T07:50:53.252Z,22.40
2023-02-06T07:52:58.231Z,22.02
2023-02-06T07:55:03.579Z,19.75
2023-02-06T07:57:08.789Z,21.00
2023-02-06T07:59:13.780Z,21.10
2023-02-06T08:01:19.010Z,21.23
2023-02-06T08:03:27.004Z,16.85
2023-02-06T08:07:37.579Z,17.48
2023-02-06T08:09:42.863Z,18.30
2023-02-06T08:11:48.237Z,23.08
2023-02-06T08:13:54.535Z,21.13
2023-02-06T08:15:59.891Z,18.48
2023-02-06T08:18:05.221Z,24.42
2023-02-06T08:20:14.547Z,20.98
2023-02-06T08:22:21.734Z,21.30
2023-02-06T08:24:26.916Z,21.48
2023-02-06T08:26:33.327Z,20.38
2023-02-06T08:28:42.291Z,21.38
2023-02-06T08:30:47.495Z,25.77
2023-02-06T08:32:52.755Z,21.00
2023-02-06T08:35:01.054Z,20.25
2023-02-06T08:37:10.470Z,20.00
2023-02-06T08:39:18.542Z,18.77
2023-02-06T08:41:26.553Z,20.63
2023-02-06T08:43:33.204Z,18.77
2023-02-06T08:45:38.388Z,23.35
2023-02-06T08:47:44.083Z,21.17
2023-02-06T08:49:51.694Z,22.50
2023-02-06T08:51:57.482Z,16.40
2023-02-06T08:54:07.682Z,18.52
2023-02-06T08:56:15.459Z,17.77
2023-02-06T08:58:20.420Z,17.80
2023-02-06T09:00:26.905Z,17.08
2023-02-06T09:02:32.676Z,20.88
2023-02-06T09:04:38.383Z,16.02
2023-02-06T09:06:46.427Z,17.08
2023-02-06T09:08:51.578Z,18.92
2023-02-06T09:10:59.451Z,16.77
2023-02-06T09:13:04.433Z,17.02
2023-02-06T09:15:12.565Z,17.80
2023-02-06T09:17:17.553Z,15.75
2023-02-06T09:19:22.678Z,17.88
2023-02-06T09:21:29.051Z,17.67
2023-02-06T09:23:34.490Z,17.65
2023-02-06T09:25:42.272Z,14.68
2023-02-06T09:27:49.830Z,18.83
2023-02-06T09:29:55.164Z,14.23
2023-02-06T09:32:00.460Z,12.27
2023-02-06T09:34:09.911Z,14.52
2023-02-06T09:36:19.026Z,14.35
2023-02-06T09:38:24.192Z,14.48
2023-02-06T09:40:32.574Z,12.25
2023-02-06T09:44:52.103Z,13.77
2023-02-06T09:47:02.211Z,9.68
2023-02-06T09:49:16.448Z,13.70
2023-02-06T09:51:30.884Z,13.70
2023-02-06T09:53:47.807Z,12.48
2023-02-06T09:56:01.656Z,13.75
2023-02-06T09:58:20.111Z,13.75
2023-02-06T10:00:42.669Z,13.05
2023-02-06T10:03:06.279Z,14.60
2023-02-06T10:05:29.009Z,12.35
2023-02-06T10:08:01.974Z,12.23
2023-02-06T10:10:13.513Z,12.80
2023-02-06T10:12:28.382Z,10.93
2023-02-06T10:14:41.791Z,11.20
2023-02-06T10:16:55.370Z,8.63
2023-02-06T10:19:05.346Z,9.18
2023-02-06T10:21:23.013Z,10.73
2023-02-06T10:23:40.446Z,11.77
2023-02-06T10:25:52.158Z,10.57
2023-02-06T10:28:04.746Z,6.88
2023-02-06T10:30:17.367Z,8.55
2023-02-06T10:32:45.810Z,5.82
2023-02-06T10:35:08.210Z,7.32
2023-02-06T10:37:38.862Z,12.85
2023-02-06T10:40:11.116Z,8.80
2023-02-06T10:42:24.426Z,11.95
2023-02-06T10:44:34.750Z,9.85
2023-02-06T10:46:46.256Z,11.32
2023-02-06T10:49:03.707Z,8.90
2023-02-06T10:51:21.372Z,11.63
2023-02-06T10:53:31.824Z,8.60
2023-02-06T10:55:48.134Z,8.48
2023-02-06T10:58:05.394Z,9.90
2023-02-06T11:00:20.164Z,10.02
2023-02-06T11:02:29.237Z,9.85
2023-02-06T11:06:50.588Z,10.05
2023-02-06T11:08:56.665Z,7.53
2023-02-06T11:13:29.485Z,9.88
2023-02-06T11:15:40.915Z,7.68
2023-02-06T11:17:47.687Z,12.10
2023-02-06T11:20:03.667Z,10.90
2023-02-06T11:22:15.763Z,10.88
2023-02-06T11:24:26.436Z,13.20
2023-02-06T11:26:31.557Z,10.60
2023-02-06T11:28:38.578Z,9.75
2023-02-06T11:30:56.185Z,9.40
2023-02-06T11:33:05.185Z,11.02
2023-02-06T11:35:29.042Z,10.48
2023-02-06T11:37:39.358Z,7.07
2023-02-06T11:39:44.352Z,10.50
2023-02-06T11:42:01.259Z,10.40
2023-02-06T11:44:08.479Z,9.52
2023-02-06T11:46:22.301Z,12.00
2023-02-06T11:48:41.477Z,10.07
2023-02-06T11:50:57.675Z,10.95
2023-02-06T11:53:11.006Z,11.00
2023-02-06T11:55:25.345Z,8.85
2023-02-06T11:57:33.755Z,14.95
2023-02-06T12:01:50.814Z,7.88
2023-02-06T12:04:01.418Z,13.45
2023-02-06T12:06:16.038Z,13.35
2023-02-06T12:08:24.355Z,14.15
2023-02-06T12:10:30.264Z,9.98
2023-02-06T12:12:40.090Z,9.18
2023-02-06T12:14:52.445Z,8.85
2023-02-06T12:16:59.121Z,10.60
2023-02-06T12:19:05.576Z,7.35
2023-02-06T12:21:18.761Z,12.07
2023-02-06T12:23:31.768Z,9.60
2023-02-06T12:25:42.058Z,10.00
2023-02-06T12:27:47.830Z,11.02
2023-02-06T12:30:01.797Z,7.35
2023-02-06T12:32:15.217Z,9.93
2023-02-06T12:34:26.383Z,7.57
2023-02-06T12:36:50.343Z,12.00
2023-02-06T12:39:02.402Z,8.43
2023-02-06T12:41:27.498Z,6.57
2023-02-06T12:43:37.461Z,8.60
2023-02-06T12:45:52.648Z,6.93
2023-02-06T12:48:02.396Z,6.82
2023-02-06T12:50:16.079Z,6.18
2023-02-06T12:52:31.487Z,7.97
2023-02-06T12:54:43.903Z,7.70
2023-02-06T12:56:54.001Z,5.55
2023-02-06T12:59:18.473Z,5.25
2023-02-06T13:01:40.570Z,6.85
2023-02-06T13:03:47.613Z,5.57
2023-02-06T13:05:56.436Z,5.43
2023-02-06T13:08:10.202Z,10.20
2023-02-06T13:10:22.664Z,9.48
2023-02-06T13:12:31.825Z,5.45
2023-02-06T13:14:40.015Z,6.55
2023-02-06T13:16:54.604Z,7.05
2023-02-06T13:19:07.924Z,9.77
2023-02-06T13:21:24.068Z,5.45
2023-02-06T13:23:31.714Z,7.25
2023-02-06T13:25:55.134Z,8.55
2023-02-06T13:28:06.111Z,8.02
2023-02-06T13:30:48.908Z,3.78
2023-02-06T13:32:54.154Z,7.72
2023-02-06T13:35:16.281Z,8.70
2023-02-06T13:37:37.882Z,10.32
2023-02-06T13:39:50.564Z,9.25
2023-02-06T13:41:56.822Z,6.93
2023-02-06T13:44:06.947Z,5.45
2023-02-06T13:46:16.714Z,4.13
2023-02-06T13:49:04.348Z,5.63
2023-02-06T13:51:47.946Z,5.47
2023-02-06T13:54:33.474Z,4.55
2023-02-06T13:57:03.128Z,5.80
2023-02-06T13:59:17.434Z,5.18
2023-02-06T14:01:27.523Z,6.25
2023-02-06T14:03:38.269Z,5.43
2023-02-06T14:05:54.541Z,6.63
2023-02-06T14:08:19.120Z,5.72
2023-02-06T14:11:21.607Z,8.13
2023-02-06T14:13:55.949Z,6.03
2023-02-06T14:16:20.965Z,7.50
2023-02-06T14:18:47.140Z,6.22
2023-02-06T14:21:06.339Z,8.27
2023-02-06T14:23:25.438Z,6.13
2023-02-06T14:25:49.838Z,8.77
2023-02-06T14:28:09.024Z,7.30
2023-02-06T14:30:32.944Z,4.78
2023-02-06T14:32:54.277Z,5.82
2023-02-06T14:35:30.095Z,7.22
2023-02-06T14:38:04.786Z,8.15
2023-02-06T14:40:20.404Z,4.68
2023-02-06T14:42:31.645Z,6.78
2023-02-06T14:44:37.370Z,6.38
2023-02-06T14:46:45.694Z,8.18
2023-02-06T14:51:00.304Z,6.30
2023-02-06T14:53:12.384Z,7.43
2023-02-06T14:55:43.546Z,9.05
2023-02-06T14:57:49.180Z,8.20
2023-02-06T15:00:00.418Z,7.80
2023-02-06T15:02:25.735Z,7.25
2023-02-06T15:04:33.182Z,7.13
2023-02-06T15:06:41.152Z,10.07
2023-02-06T15:08:51.893Z,13.55
2023-02-06T15:11:01.899Z,7.93
2023-02-06T15:13:07.840Z,10.15
2023-02-06T15:15:22.827Z,10.20
2023-02-06T15:17:30.430Z,6.45
2023-02-06T15:19:37.560Z,8.50
2023-02-06T15:21:45.704Z,8.55
2023-02-06T15:24:05.234Z,6.68
2023-02-06T15:26:29.447Z,9.48
2023-02-06T15:28:37.979Z,7.85
2023-02-06T15:30:43.466Z,9.95
2023-02-06T15:32:54.641Z,10.57
2023-02-06T15:35:00.740Z,8.45
2023-02-06T15:37:25.980Z,11.55
2023-02-06T15:39:31.118Z,9.13
2023-02-06T15:41:37.511Z,8.35
2023-02-06T15:43:46.680Z,7.25
2023-02-06T15:45:55.706Z,7.95
2023-02-06T15:48:12.980Z,8.35
2023-02-06T15:50:22.745Z,11.52
2023-02-06T15:52:43.550Z,9.43
2023-02-06T15:55:00.687Z,9.02
2023-02-06T15:57:09.743Z,7.82
2023-02-06T15:59:23.348Z,11.18
2023-02-06T16:01:32.630Z,10.02
2023-02-06T16:03:44.341Z,10.00
2023-02-06T16:05:50.860Z,10.35
2023-02-06T16:07:55.899Z,14.60
2023-02-06T16:10:07.107Z,9.68
2023-02-06T16:12:13.146Z,7.47
2023-02-06T16:14:35.576Z,11.15
2023-02-06T16:16:40.944Z,8.90
2023-02-06T16:18:48.971Z,12.38
2023-02-06T16:23:23.865Z,11.13
2023-02-06T16:25:35.686Z,13.57
2023-02-06T16:27:47.300Z,13.88
2023-02-06T16:29:55.965Z,10.80
2023-02-06T16:32:04.356Z,8.93
2023-02-06T16:34:35.118Z,11.00
2023-02-06T16:36:40.618Z,11.23
2023-02-06T16:38:54.068Z,10.77
2023-02-06T16:41:24.379Z,10.95
2023-02-06T16:43:36.004Z,9.98
2023-02-06T16:45:41.488Z,11.82
2023-02-06T16:47:46.925Z,14.93
2023-02-06T16:49:55.048Z,11.45
2023-02-06T16:52:00.202Z,13.35
2023-02-06T16:54:05.155Z,13.15
2023-02-06T16:56:15.108Z,14.52
2023-02-06T16:58:29.097Z,14.68
2023-02-06T17:00:35.165Z,10.95
2023-02-06T17:02:40.772Z,14.07
2023-02-06T17:04:46.014Z,13.18
2023-02-06T17:06:53.907Z,11.20
2023-02-06T17:09:06.552Z,12.57
2023-02-06T17:11:11.523Z,11.05
2023-02-06T17:13:18.885Z,10.85
2023-02-06T17:15:24.239Z,11.47
2023-02-06T17:17:29.545Z,13.70
2023-02-06T17:19:34.499Z,12.60
2023-02-06T17:21:40.775Z,12.52
2023-02-06T17:23:49.980Z,12.73
2023-02-06T17:25:55.006Z,13.90
2023-02-06T17:28:00.823Z,11.77
2023-02-06T17:30:06.086Z,14.20
2023-02-06T17:32:11.141Z,12.35
2023-02-06T17:34:16.394Z,11.15
2023-02-06T17:36:29.835Z,11.68
2023-02-06T17:38:34.875Z,10.23
2023-02-06T17:40:42.575Z,13.10
2023-02-06T17:42:47.584Z,12.15
2023-02-06T17:44:53.626Z,9.90
2023-02-06T17:46:58.630Z,9.25
2023-02-06T17:49:03.590Z,10.30
2023-02-06T17:51:09.059Z,12.00
2023-02-06T17:53:16.570Z,10.43
2023-02-06T17:55:21.796Z,8.65
2023-02-06T17:57:31.620Z,9.77
2023-02-06T17:59:36.971Z,10.30
2023-02-06T18:01:42.573Z,8.73
2023-02-06T18:03:48.171Z,9.45
2023-02-06T18:05:59.769Z,9.32
2023-02-06T18:08:04.970Z,7.88
2023-02-06T18:10:13.757Z,7.15
2023-02-06T18:12:19.624Z,11.77
2023-02-06T18:14:27.195Z,8.43
2023-02-06T18:16:33.839Z,8.65
2023-02-06T18:18:39.119Z,6.67
2023-02-06T18:20:44.659Z,7.22
2023-02-06T18:22:50.455Z,8.38
2023-02-06T18:24:55.475Z,7.00
2023-02-06T18:27:03.367Z,5.75
2023-02-06T18:31:28.788Z,16.77
2023-02-06T18:33:36.075Z,7.07
2023-02-06T18:35:42.308Z,6.50
2023-02-06T18:37:50.521Z,6.88
2023-02-06T18:39:57.651Z,6.53
2023-02-06T18:42:15.321Z,6.07
2023-02-06T18:46:28.388Z,8.15
2023-02-06T18:50:44.050Z,5.55
2023-02-06T18:52:49.128Z,6.75
2023-02-06T18:54:54.150Z,5.82
2023-02-06T18:56:59.350Z,5.07
2023-02-06T18:59:05.667Z,6.13
2023-02-06T19:01:16.174Z,8.48
2023-02-06T19:03:23.771Z,6.80
2023-02-06T19:05:30.666Z,5.00
2023-02-06T19:07:36.271Z,6.85
2023-02-06T19:09:41.519Z,5.05
2023-02-06T19:11:46.549Z,9.38
2023-02-06T19:13:51.820Z,8.65
2023-02-06T19:16:07.164Z,5.32
2023-02-06T19:18:12.134Z,4.85
2023-02-06T19:20:19.950Z,5.47
2023-02-06T19:22:25.159Z,7.47
2023-02-06T19:24:30.744Z,5.57
2023-02-06T19:26:36.904Z,8.18
2023-02-06T19:28:43.844Z,12.07
2023-02-06T19:30:49.212Z,7.18
2023-02-06T19:32:54.600Z,5.22
2023-02-06T19:34:59.669Z,8.15
2023-02-06T19:37:07.381Z,5.80
2023-02-06T19:39:16.166Z,4.75
2023-02-06T19:41:26.916Z,7.10
2023-02-06T19:43:31.869Z,6.32
2023-02-06T19:45:39.045Z,5.97
2023-02-06T19:47:44.146Z,6.72
2023-02-06T19:49:51.847Z,5.60
2023-02-06T19:51:57.042Z,5.05
2023-02-06T19:54:04.681Z,4.65
2023-02-06T19:56:10.742Z,6.03
2023-02-06T19:58:16.416Z,6.32
2023-02-06T20:00:22.399Z,6.25
2023-02-06T20:02:28.258Z,8.23
2023-02-06T20:04:36.548Z,5.00
2023-02-06T20:08:50.077Z,4.85
2023-02-06T20:10:58.383Z,6.05
2023-02-06T20:15:09.386Z,4.50
2023-02-06T20:17:14.818Z,5.35
2023-02-06T20:19:22.996Z,5.65
2023-02-06T20:21:32.428Z,7.50
2023-02-06T20:23:41.082Z,6.32
2023-02-06T20:25:46.011Z,5.38
2023-02-06T20:27:54.326Z,6.22
2023-02-06T20:29:59.356Z,7.15
2023-02-06T20:32:06.173Z,6.32
2023-02-06T20:34:11.112Z,6.35
2023-02-06T20:36:18.925Z,5.88
2023-02-06T20:38:24.331Z,4.57
2023-02-06T20:40:29.647Z,3.33
2023-02-06T20:42:37.107Z,4.07
2023-02-06T20:44:44.631Z,4.80
2023-02-06T20:46:50.193Z,5.28
2023-02-06T20:49:00.851Z,3.03
2023-02-06T20:51:08.204Z,2.90
2023-02-06T20:53:13.423Z,3.60
2023-02-06T20:55:18.772Z,3.63
2023-02-06T20:57:23.906Z,3.40
2023-02-06T20:59:29.424Z,3.45
2023-02-06T21:01:37.277Z,2.17
2023-02-06T21:03:42.287Z,2.15
2023-02-06T21:05:48.020Z,2.50
2023-02-06T21:07:53.354Z,1.83
2023-02-06T21:09:58.632Z,1.85
2023-02-06T21:12:04.040Z,2.60
2023-02-06T21:14:09.657Z,2.47
2023-02-06T21:16:15.348Z,1.95
2023-02-06T21:18:23.556Z,2.45
2023-02-06T21:20:28.845Z,2.53
2023-02-06T21:22:33.816Z,2.28
2023-02-06T21:24:38.738Z,3.15
2023-02-06T21:26:45.152Z,2.22
2023-02-06T21:28:50.618Z,2.72
2023-02-06T21:31:03.019Z,3.97
2023-02-06T21:33:08.033Z,2.97
2023-02-06T21:35:16.424Z,4.07
2023-02-06T21:37:22.588Z,3.65
2023-02-06T21:39:31.128Z,3.83
2023-02-06T21:41:36.213Z,2.92
2023-02-06T21:43:41.566Z,3.67
2023-02-06T21:45:46.996Z,3.17
2023-02-06T21:47:52.010Z,2.75
2023-02-06T21:49:57.243Z,3.42
2023-02-06T21:52:05.155Z,3.90
2023-02-06T21:56:20.057Z,3.78
2023-02-06T21:58:25.005Z,3.53
2023-02-06T22:00:30.448Z,3.25
2023-02-06T22:02:35.740Z,2.55
2023-02-06T22:04:41.332Z,2.20
2023-02-06T22:06:48.164Z,2.80
2023-02-06T22:09:04.458Z,2.88
2023-02-06T22:11:19.272Z,3.40
2023-02-06T22:13:24.872Z,2.80
2023-02-06T22:15:29.784Z,3.20
2023-02-06T22:17:35.544Z,2.85
2023-02-06T22:19:40.515Z,4.22
2023-02-06T22:21:45.838Z,3.40
2023-02-06T22:23:52.249Z,3.42
2023-02-06T22:26:00.125Z,5.80
2023-02-06T22:28:05.443Z,2.47
2023-02-06T22:30:13.051Z,3.35
2023-02-06T22:32:17.980Z,3.72
2023-02-06T22:34:24.616Z,4.47
2023-02-06T22:36:32.935Z,3.72
2023-02-06T22:38:39.115Z,3.22
2023-02-06T22:40:44.469Z,3.35
2023-02-06T22:42:52.309Z,4.35
2023-02-06T22:47:03.081Z,3.78
2023-02-06T22:49:09.517Z,3.72
2023-02-06T22:51:15.176Z,3.25
2023-02-06T22:53:30.088Z,4.75
2023-02-06T22:55:47.366Z,5.00
2023-02-06T22:57:54.859Z,4.95
2023-02-06T22:59:59.982Z,4.78
2023-02-06T23:02:05.028Z,3.25
2023-02-06T23:04:14.984Z,4.90
2023-02-06T23:06:20.122Z,5.07
2023-02-06T23:08:25.420Z,4.88
2023-02-06T23:10:30.822Z,4.30
2023-02-06T23:12:35.764Z,3.30
2023-02-06T23:14:44.065Z,3.72
2023-02-06T23:18:54.746Z,4.03
2023-02-06T23:21:03.501Z,4.15
2023-02-06T23:23:08.459Z,4.60
2023-02-06T23:25:14.632Z,4.03
2023-02-06T23:27:19.747Z,3.78
2023-02-06T23:29:26.618Z,5.00
2023-02-06T23:31:34.591Z,3.63
2023-02-06T23:33:40.698Z,4.05
2023-02-06T23:35:46.940Z,3.53
2023-02-06T23:37:51.927Z,5.53
2023-02-06T23:39:57.248Z,3.45
2023-02-06T23:42:02.481Z,4.00
2023-02-06T23:44:10.464Z,4.22
2023-02-06T23:48:23.571Z,4.80
2023-02-06T23:50:29.436Z,4.22
2023-02-06T23:52:35.136Z,3.28
2023-02-06T23:54:40.669Z,3.97
2023-02-06T23:56:45.697Z,4.15
2023-02-06T23:58:51.731Z,4.55
